Time;durP1;ratioP1;P1;durP2;ratioP2;P2;SDS_P1;SDS_P2;PMS_P1;PMS_P2;Temp;Humidity;BMP_temperature;BMP_pressure;BME280_temperature;BME280_humidity;BME280_pressure;Samples;Min_cycle;Max_cycle;Signal;HPM_P1;HPM_P2
2023/11/03 00:00:19;;;;;;;2.30;1.67;;;;;;;;;;5063340;28;20554;-53
2023/11/03 00:02:46;;;;;;;2.23;1.80;;;;;;;;;;5055111;28;20173;-54
2023/11/03 00:05:12;;;;;;;4.40;1.70;;;;;;;;;;5062537;28;20280;-54
2023/11/03 00:07:39;;;;;;;2.00;1.50;;;;;;;;;;5065703;28;20188;-54
2023/11/03 00:10:06;;;;;;;3.03;2.00;;;;;;;;;;5061445;28;20197;-55
2023/11/03 00:12:35;;;;;;;5.70;2.13;;;;;;;;;;5067453;28;20192;-54
2023/11/03 00:15:01;;;;;;;2.33;1.73;;;;;;;;;;5068850;28;20620;-54
2023/11/03 00:17:28;;;;;;;5.30;2.40;;;;;;;;;;5071475;28;20644;-54
2023/11/03 00:19:57;;;;;;;3.87;1.90;;;;;;;;;;5066664;28;20275;-54
2023/11/03 00:22:24;;;;;;;3.77;2.07;;;;;;;;;;5064102;28;20172;-53
2023/11/03 00:24:50;;;;;;;2.47;1.80;;;;;;;;;;5066496;28;20184;-53
2023/11/03 00:27:16;;;;;;;4.17;1.83;;;;;;;;;;5067738;28;20168;-55
2023/11/03 00:29:42;;;;;;;3.03;1.77;;;;;;;;;;5065940;28;20287;-54
2023/11/03 00:32:09;;;;;;;1.83;1.70;;;;;;;;;;5064239;28;20227;-54
2023/11/03 00:34:36;;;;;;;1.50;1.40;;;;;;;;;;5067475;28;20193;-54
2023/11/03 00:37:02;;;;;;;3.95;1.80;;;;;;;;;;5055103;28;20414;-55
2023/11/03 00:39:29;;;;;;;2.43;1.73;;;;;;;;;;5067160;28;20640;-54
2023/11/03 00:44:44;;;;;;;2.40;1.70;;;;;;;;;;5062756;28;20196;-55
2023/11/03 00:47:10;;;;;;;3.07;1.83;;;;;;;;;;5065699;28;22292;-55
2023/11/03 00:49:39;;;;;;;3.00;1.80;;;;;;;;;;5063474;28;20162;-55
2023/11/03 00:52:07;;;;;;;1.97;1.87;;;;;;;;;;5056215;28;20640;-55
2023/11/03 00:54:33;;;;;;;2.03;1.80;;;;;;;;;;5064831;28;20628;-54
2023/11/03 00:57:00;;;;;;;1.80;1.70;;;;;;;;;;5064987;28;20177;-55
2023/11/03 00:59:26;;;;;;;1.70;1.60;;;;;;;;;;5060021;28;20193;-55
2023/11/03 01:01:52;;;;;;;2.67;1.73;;;;;;;;;;5062709;28;20629;-55
2023/11/03 01:04:18;;;;;;;1.73;1.63;;;;;;;;;;5065366;28;20169;-55
2023/11/03 01:06:45;;;;;;;2.57;1.77;;;;;;;;;;5069235;28;20568;-55
2023/11/03 01:09:11;;;;;;;2.47;1.43;;;;;;;;;;5064373;28;20180;-54
2023/11/03 01:11:37;;;;;;;3.37;1.63;;;;;;;;;;5063688;28;20576;-55
2023/11/03 01:14:09;;;;;;;2.70;1.80;;;;;;;;;;5065881;28;20670;-54
2023/11/03 01:16:41;;;;;;;2.00;1.83;;;;;;;;;;5065003;28;20540;-55
2023/11/03 01:19:09;;;;;;;3.20;2.37;;;;;;;;;;5060627;28;20234;-55
2023/11/03 01:21:39;;;;;;;2.30;1.80;;;;;;;;;;5063210;28;20192;-55
2023/11/03 01:24:10;;;;;;;1.70;1.60;;;;;;;;;;5064728;28;20309;-55
2023/11/03 01:26:36;;;;;;;2.23;1.83;;;;;;;;;;5061998;28;20184;-55
2023/11/03 01:29:05;;;;;;;1.63;1.53;;;;;;;;;;5066191;28;20195;-55
2023/11/03 01:31:32;;;;;;;5.47;1.83;;;;;;;;;;5069284;28;20549;-55
2023/11/03 01:33:59;;;;;;;3.03;1.77;;;;;;;;;;5065057;28;20687;-55
2023/11/03 01:36:25;;;;;;;2.03;1.80;;;;;;;;;;5064727;28;20646;-54
2023/11/03 01:38:51;;;;;;;2.87;2.10;;;;;;;;;;5061224;28;20220;-54
2023/11/03 01:41:17;;;;;;;2.50;2.00;;;;;;;;;;5059784;28;20281;-55
2023/11/03 01:44:12;;;;;;;2.53;1.97;;;;;;;;;;5066707;28;20183;-55
2023/11/03 01:46:39;;;;;;;2.27;1.97;;;;;;;;;;5060952;28;20617;-55
2023/11/03 01:49:06;;;;;;;3.53;3.00;;;;;;;;;;5066264;28;20180;-55
2023/11/03 01:51:36;;;;;;;2.37;1.70;;;;;;;;;;5064340;28;20289;-54
2023/11/03 01:54:02;;;;;;;4.70;1.50;;;;;;;;;;5061550;28;20204;-56
2023/11/03 01:56:30;;;;;;;1.90;1.70;;;;;;;;;;5062501;28;20333;-55
2023/11/03 01:58:57;;;;;;;3.43;1.90;;;;;;;;;;5064255;28;20628;-54
2023/11/03 02:01:23;;;;;;;2.70;1.60;;;;;;;;;;5063907;28;20215;-55
2023/11/03 02:03:50;;;;;;;4.00;1.70;;;;;;;;;;5064632;28;20180;-56
2023/11/03 02:06:16;;;;;;;3.93;2.03;;;;;;;;;;5066109;28;20188;-55
2023/11/03 02:08:42;;;;;;;3.33;1.90;;;;;;;;;;5067174;28;20252;-55
2023/11/03 02:11:08;;;;;;;1.90;1.57;;;;;;;;;;5066750;28;20718;-55
2023/11/03 02:13:38;;;;;;;2.53;1.60;;;;;;;;;;5067147;28;20255;-55
2023/11/03 02:16:04;;;;;;;1.53;1.33;;;;;;;;;;5069061;28;20314;-55
2023/11/03 02:18:33;;;;;;;3.30;1.60;;;;;;;;;;5067766;28;20275;-55
2023/11/03 02:20:59;;;;;;;2.77;1.60;;;;;;;;;;5068481;28;20628;-55
2023/11/03 02:23:26;;;;;;;5.57;2.10;;;;;;;;;;5064873;28;20525;-55
2023/11/03 02:25:52;;;;;;;3.17;1.37;;;;;;;;;;5068957;28;20656;-55
2023/11/03 02:28:18;;;;;;;3.13;1.90;;;;;;;;;;5067421;28;20270;-55
2023/11/03 02:30:44;;;;;;;1.47;1.37;;;;;;;;;;5068160;28;20278;-55
2023/11/03 02:33:10;;;;;;;3.90;1.40;;;;;;;;;;5062102;28;20304;-55
2023/11/03 02:35:36;;;;;;;2.80;1.50;;;;;;;;;;5065180;28;20180;-55
2023/11/03 02:38:02;;;;;;;1.93;1.60;;;;;;;;;;5065161;28;20250;-55
2023/11/03 02:40:28;;;;;;;4.57;1.60;;;;;;;;;;5067307;28;20376;-55
2023/11/03 02:42:54;;;;;;;3.77;1.50;;;;;;;;;;5065779;28;20546;-55
2023/11/03 02:45:20;;;;;;;2.50;1.53;;;;;;;;;;5060964;28;20196;-55
2023/11/03 02:47:47;;;;;;;2.40;1.57;;;;;;;;;;5059246;28;20169;-55
2023/11/03 02:50:13;;;;;;;1.30;1.20;;;;;;;;;;5067574;28;20214;-55
2023/11/03 02:52:39;;;;;;;1.80;1.50;;;;;;;;;;5068906;28;20226;-56
2023/11/03 02:55:05;;;;;;;2.23;1.87;;;;;;;;;;5068888;28;20169;-55
2023/11/03 02:57:31;;;;;;;1.30;1.20;;;;;;;;;;5068613;28;20216;-54
2023/11/03 02:59:57;;;;;;;1.33;1.20;;;;;;;;;;5068187;28;20245;-54
2023/11/03 03:02:23;;;;;;;2.27;1.50;;;;;;;;;;5065601;28;20180;-54
2023/11/03 03:04:49;;;;;;;2.10;1.20;;;;;;;;;;5064468;28;20184;-55
2023/11/03 03:07:15;;;;;;;1.20;1.20;;;;;;;;;;5064190;28;20250;-54
2023/11/03 03:09:42;;;;;;;3.00;1.70;;;;;;;;;;5076828;28;20724;-55
2023/11/03 03:12:08;;;;;;;3.70;1.40;;;;;;;;;;5064408;28;20208;-54
2023/11/03 03:14:34;;;;;;;1.93;1.50;;;;;;;;;;5059443;28;20637;-55
2023/11/03 03:17:00;;;;;;;3.43;1.60;;;;;;;;;;5066121;28;20689;-54
2023/11/03 03:19:26;;;;;;;1.97;1.40;;;;;;;;;;5062781;28;20204;-54
2023/11/03 03:21:52;;;;;;;2.10;1.40;;;;;;;;;;5062842;28;20185;-54
2023/11/03 03:24:18;;;;;;;2.30;1.60;;;;;;;;;;5058526;28;20185;-54
2023/11/03 03:26:44;;;;;;;1.50;1.40;;;;;;;;;;5072992;28;20188;-54
2023/11/03 03:29:10;;;;;;;1.93;1.70;;;;;;;;;;5064353;28;20702;-54
2023/11/03 03:31:36;;;;;;;3.80;1.53;;;;;;;;;;5066552;28;20623;-54
2023/11/03 03:34:03;;;;;;;2.30;1.30;;;;;;;;;;5062462;28;20197;-54
2023/11/03 03:36:29;;;;;;;1.87;1.50;;;;;;;;;;5059245;28;20578;-55
2023/11/03 03:38:55;;;;;;;1.97;1.60;;;;;;;;;;5062983;28;20226;-54
2023/11/03 03:41:21;;;;;;;1.83;1.20;;;;;;;;;;5065239;28;20268;-54
2023/11/03 03:43:47;;;;;;;2.83;1.20;;;;;;;;;;5066265;28;20180;-54
2023/11/03 03:46:13;;;;;;;2.37;1.40;;;;;;;;;;5068512;28;20635;-55
2023/11/03 03:48:39;;;;;;;3.37;1.40;;;;;;;;;;5065874;28;20288;-54
2023/11/03 03:51:05;;;;;;;3.25;1.20;;;;;;;;;;5067565;28;20188;-54
2023/11/03 03:53:32;;;;;;;1.97;1.50;;;;;;;;;;5066001;28;20230;-54
2023/11/03 03:55:58;;;;;;;2.90;1.30;;;;;;;;;;5064218;28;20188;-55
2023/11/03 03:58:24;;;;;;;1.70;1.60;;;;;;;;;;5066942;28;20208;-55
2023/11/03 04:00:51;;;;;;;1.90;1.50;;;;;;;;;;5065236;28;20496;-55
2023/11/03 04:03:18;;;;;;;2.63;2.43;;;;;;;;;;5063492;28;20589;-55
2023/11/03 04:05:44;;;;;;;2.43;1.77;;;;;;;;;;5061449;28;20267;-55
2023/11/03 04:08:10;;;;;;;4.35;2.55;;;;;;;;;;5068606;28;20227;-54
2023/11/03 04:10:36;;;;;;;1.90;1.30;;;;;;;;;;5067517;28;20183;-54
2023/11/03 04:13:02;;;;;;;3.53;1.53;;;;;;;;;;5068203;28;20546;-56
2023/11/03 04:15:28;;;;;;;1.67;1.37;;;;;;;;;;5066459;28;20184;-55
2023/11/03 04:17:54;;;;;;;3.73;1.87;;;;;;;;;;5066519;28;20241;-54
2023/11/03 04:20:20;;;;;;;2.30;1.40;;;;;;;;;;5067348;28;20194;-56
2023/11/03 04:22:46;;;;;;;1.85;1.30;;;;;;;;;;5066986;28;20503;-55
2023/11/03 04:25:12;;;;;;;1.60;1.23;;;;;;;;;;5067015;28;20204;-55
2023/11/03 04:27:39;;;;;;;1.87;1.33;;;;;;;;;;5083565;28;20333;-56
2023/11/03 04:30:05;;;;;;;3.10;1.60;;;;;;;;;;5067320;28;20194;-56
2023/11/03 04:32:31;;;;;;;4.73;1.50;;;;;;;;;;5055803;28;20691;-56
2023/11/03 04:34:58;;;;;;;3.30;1.60;;;;;;;;;;5064961;28;20665;-56
2023/11/03 04:37:26;;;;;;;2.17;1.50;;;;;;;;;;5065150;28;20226;-56
2023/11/03 04:39:52;;;;;;;3.53;1.40;;;;;;;;;;5066449;28;20556;-58
2023/11/03 04:42:18;;;;;;;1.43;1.20;;;;;;;;;;5068312;28;20172;-56
2023/11/03 04:44:44;;;;;;;1.30;1.20;;;;;;;;;;5067294;28;20535;-56
2023/11/03 04:47:10;;;;;;;2.33;1.50;;;;;;;;;;5063154;28;20169;-56
2023/11/03 04:49:36;;;;;;;2.40;1.70;;;;;;;;;;5067106;28;20184;-59
2023/11/03 04:52:02;;;;;;;5.20;2.03;;;;;;;;;;5065568;28;20183;-56
2023/11/03 04:54:28;;;;;;;1.50;1.20;;;;;;;;;;5065548;28;20187;-56
2023/11/03 04:56:54;;;;;;;4.23;2.20;;;;;;;;;;5069292;28;20179;-56
2023/11/03 04:59:20;;;;;;;2.13;1.63;;;;;;;;;;5062386;28;20220;-56
2023/11/03 05:01:47;;;;;;;1.73;1.30;;;;;;;;;;5064746;28;20513;-56
2023/11/03 05:04:15;;;;;;;2.57;1.93;;;;;;;;;;5063588;28;20173;-56
2023/11/03 05:06:43;;;;;;;4.40;2.30;;;;;;;;;;5058241;28;20188;-56
2023/11/03 05:09:10;;;;;;;1.77;1.40;;;;;;;;;;5063560;28;20184;-56
2023/11/03 05:11:36;;;;;;;4.10;2.00;;;;;;;;;;5058258;28;20180;-55
2023/11/03 05:14:02;;;;;;;4.10;2.03;;;;;;;;;;5062810;28;20187;-55
2023/11/03 05:16:29;;;;;;;2.87;1.77;;;;;;;;;;5066093;28;20603;-55
2023/11/03 05:18:56;;;;;;;2.47;1.33;;;;;;;;;;5065932;28;20192;-55
2023/11/03 05:21:22;;;;;;;4.97;2.37;;;;;;;;;;5065026;28;20180;-55
2023/11/03 05:23:49;;;;;;;2.33;1.50;;;;;;;;;;5065960;28;20544;-55
2023/11/03 05:26:16;;;;;;;3.90;1.30;;;;;;;;;;5063418;28;20709;-55
2023/11/03 05:28:43;;;;;;;3.17;1.20;;;;;;;;;;5062267;28;20176;-55
2023/11/03 05:31:09;;;;;;;2.83;1.70;;;;;;;;;;5067219;28;20188;-56
2023/11/03 05:33:35;;;;;;;1.83;1.23;;;;;;;;;;5063267;28;20216;-56
2023/11/03 05:36:01;;;;;;;3.17;1.80;;;;;;;;;;5063966;28;20644;-55
2023/11/03 05:38:27;;;;;;;8.53;1.83;;;;;;;;;;5061845;28;20691;-55
2023/11/03 05:40:53;;;;;;;3.33;1.40;;;;;;;;;;5065191;28;20198;-55
2023/11/03 05:43:20;;;;;;;6.23;2.37;;;;;;;;;;5063061;28;20238;-56
2023/11/03 05:45:46;;;;;;;4.60;1.83;;;;;;;;;;5062706;28;20165;-55
2023/11/03 05:48:12;;;;;;;6.03;1.53;;;;;;;;;;5061499;28;20173;-55
2023/11/03 05:50:38;;;;;;;3.93;1.53;;;;;;;;;;5066274;28;20180;-55
2023/11/03 05:53:04;;;;;;;3.47;1.50;;;;;;;;;;5067426;28;20422;-55
2023/11/03 05:55:30;;;;;;;3.90;1.90;;;;;;;;;;5059663;28;20561;-55
2023/11/03 05:57:56;;;;;;;5.50;1.60;;;;;;;;;;5060883;28;20270;-55
2023/11/03 06:00:27;;;;;;;2.50;1.50;;;;;;;;;;5069273;28;20257;-56
2023/11/03 06:02:54;;;;;;;6.47;2.00;;;;;;;;;;5062779;28;20180;-55
2023/11/03 06:05:20;;;;;;;5.27;1.97;;;;;;;;;;5059295;28;20172;-56
2023/11/03 06:07:48;;;;;;;1.57;1.40;;;;;;;;;;5060460;28;20184;-56
2023/11/03 06:10:14;;;;;;;4.37;2.23;;;;;;;;;;5068314;28;20219;-55
2023/11/03 06:12:40;;;;;;;5.20;1.80;;;;;;;;;;5063776;28;20323;-56
2023/11/03 06:15:07;;;;;;;2.60;1.83;;;;;;;;;;5069426;28;20203;-55
2023/11/03 06:17:33;;;;;;;4.90;1.40;;;;;;;;;;5064873;28;20238;-56
2023/11/03 06:19:59;;;;;;;2.70;1.60;;;;;;;;;;5069573;28;20194;-56
2023/11/03 06:22:25;;;;;;;2.80;1.60;;;;;;;;;;5065051;28;20181;-56
2023/11/03 06:24:51;;;;;;;1.97;1.77;;;;;;;;;;5068022;28;20172;-57
2023/11/03 06:27:17;;;;;;;5.13;2.20;;;;;;;;;;5067643;28;20183;-57
2023/11/03 06:29:43;;;;;;;5.53;1.70;;;;;;;;;;5066054;28;20583;-56
2023/11/03 06:32:09;;;;;;;2.57;1.63;;;;;;;;;;5062367;28;20224;-57
2023/11/03 06:34:36;;;;;;;6.57;2.30;;;;;;;;;;5066492;28;20184;-57
2023/11/03 06:37:02;;;;;;;4.07;1.93;;;;;;;;;;5065540;28;20349;-57
2023/11/03 06:39:28;;;;;;;2.73;1.73;;;;;;;;;;5065627;28;20616;-57
2023/11/03 06:41:54;;;;;;;2.53;1.60;;;;;;;;;;5065701;28;20225;-57
2023/11/03 06:44:21;;;;;;;2.00;1.57;;;;;;;;;;5062217;28;20176;-57
2023/11/03 06:46:47;;;;;;;2.27;1.63;;;;;;;;;;5065297;28;20185;-57
2023/11/03 06:49:13;;;;;;;4.90;1.57;;;;;;;;;;5063170;28;20246;-57
2023/11/03 06:51:42;;;;;;;5.00;1.70;;;;;;;;;;5061988;28;20185;-56
2023/11/03 06:54:09;;;;;;;4.70;2.20;;;;;;;;;;5069476;28;20631;-57
2023/11/03 06:56:36;;;;;;;2.40;1.37;;;;;;;;;;5056301;28;20380;-57
2023/11/03 06:59:03;;;;;;;5.10;1.80;;;;;;;;;;5062569;28;20204;-57
2023/11/03 07:01:31;;;;;;;2.40;1.60;;;;;;;;;;5065547;28;20177;-57
2023/11/03 07:03:58;;;;;;;3.10;1.73;;;;;;;;;;5062349;28;20177;-56
2023/11/03 07:06:24;;;;;;;2.83;1.70;;;;;;;;;;5067918;28;20176;-57
2023/11/03 07:08:51;;;;;;;2.40;1.50;;;;;;;;;;5066859;28;20214;-57
2023/11/03 07:11:17;;;;;;;2.77;1.40;;;;;;;;;;5066306;28;20174;-57
2023/11/03 07:13:43;;;;;;;2.77;1.50;;;;;;;;;;5064101;28;20192;-57
2023/11/03 07:16:10;;;;;;;3.57;1.20;;;;;;;;;;5058244;28;20188;-57
2023/11/03 07:18:36;;;;;;;2.10;1.60;;;;;;;;;;5065598;28;20238;-57
2023/11/03 07:21:02;;;;;;;2.63;1.47;;;;;;;;;;5066949;28;20184;-57
2023/11/03 07:23:31;;;;;;;4.33;1.70;;;;;;;;;;5064660;28;20249;-56
2023/11/03 07:26:00;;;;;;;2.03;1.50;;;;;;;;;;5060909;28;20277;-56
2023/11/03 07:28:29;;;;;;;3.03;1.60;;;;;;;;;;5051791;28;20181;-56
2023/11/03 07:31:01;;;;;;;4.60;1.70;;;;;;;;;;5064144;28;20219;-57
2023/11/03 07:33:29;;;;;;;3.73;1.73;;;;;;;;;;5057744;28;20225;-56
2023/11/03 07:35:55;;;;;;;5.73;2.03;;;;;;;;;;5060741;28;20252;-57
2023/11/03 07:38:22;;;;;;;2.60;1.40;;;;;;;;;;5059075;28;20200;-56
2023/11/03 07:40:48;;;;;;;2.77;1.80;;;;;;;;;;5062855;28;20177;-56
2023/11/03 07:43:15;;;;;;;3.17;1.50;;;;;;;;;;5066556;28;20552;-57
2023/11/03 07:45:43;;;;;;;3.80;1.67;;;;;;;;;;5066610;28;20605;-56
2023/11/03 07:48:09;;;;;;;2.63;1.67;;;;;;;;;;5052425;28;20535;-57
2023/11/03 07:50:36;;;;;;;3.00;1.50;;;;;;;;;;5064075;28;20173;-57
2023/11/03 07:53:03;;;;;;;2.27;1.77;;;;;;;;;;5065118;28;20644;-56
2023/11/03 07:55:30;;;;;;;2.93;1.57;;;;;;;;;;5065793;28;20174;-57
2023/11/03 07:57:56;;;;;;;1.80;1.70;;;;;;;;;;5065602;28;20204;-57
2023/11/03 08:00:23;;;;;;;3.43;1.70;;;;;;;;;;5063830;28;20277;-57
2023/11/03 08:02:50;;;;;;;3.23;2.00;;;;;;;;;;5060784;28;20309;-57
2023/11/03 08:05:18;;;;;;;3.70;1.70;;;;;;;;;;5062013;28;20226;-56
2023/11/03 08:07:44;;;;;;;3.47;1.87;;;;;;;;;;5066036;28;20290;-56
2023/11/03 08:10:12;;;;;;;4.57;1.70;;;;;;;;;;5066447;28;20180;-57
2023/11/03 08:12:41;;;;;;;2.70;1.70;;;;;;;;;;5059730;28;20267;-57
2023/11/03 08:15:08;;;;;;;4.33;2.00;;;;;;;;;;5056130;28;20186;-56
2023/11/03 08:17:35;;;;;;;2.37;1.70;;;;;;;;;;5064376;28;20241;-58
2023/11/03 08:20:03;;;;;;;2.27;1.50;;;;;;;;;;5057679;28;20293;-56
2023/11/03 08:22:29;;;;;;;4.40;2.00;;;;;;;;;;5052365;28;20187;-56
2023/11/03 08:24:56;;;;;;;3.10;1.60;;;;;;;;;;5052936;28;20242;-56
2023/11/03 08:27:22;;;;;;;1.90;1.67;;;;;;;;;;5048806;28;20669;-56
2023/11/03 08:29:49;;;;;;;2.13;1.70;;;;;;;;;;5057383;28;20682;-56
2023/11/03 08:32:16;;;;;;;3.00;1.50;;;;;;;;;;5055865;28;20208;-56
2023/11/03 08:34:42;;;;;;;5.17;1.90;;;;;;;;;;5062535;28;21053;-57
2023/11/03 08:37:10;;;;;;;3.37;1.93;;;;;;;;;;5058158;28;20815;-57
2023/11/03 08:39:37;;;;;;;3.33;1.80;;;;;;;;;;5061986;28;20198;-57
2023/11/03 08:42:06;;;;;;;4.77;1.83;;;;;;;;;;5065604;28;20519;-57
2023/11/03 08:44:32;;;;;;;1.87;1.33;;;;;;;;;;5063880;28;20204;-56
2023/11/03 08:46:58;;;;;;;7.27;2.40;;;;;;;;;;5062047;28;20200;-56
2023/11/03 08:49:24;;;;;;;3.75;1.90;;;;;;;;;;5062359;28;20434;-56
2023/11/03 08:51:51;;;;;;;5.23;2.30;;;;;;;;;;5066372;28;20410;-56
2023/11/03 08:54:18;;;;;;;5.53;2.13;;;;;;;;;;5065458;28;20185;-56
2023/11/03 08:56:47;;;;;;;4.27;2.20;;;;;;;;;;5065151;28;20182;-56
2023/11/03 08:59:14;;;;;;;3.23;2.10;;;;;;;;;;5064615;28;20197;-57
2023/11/03 09:01:43;;;;;;;3.90;1.90;;;;;;;;;;5065075;28;20176;-56
2023/11/03 09:04:09;;;;;;;3.33;2.17;;;;;;;;;;5060363;28;20198;-56
2023/11/03 09:06:39;;;;;;;5.17;1.70;;;;;;;;;;5065898;28;20179;-56
2023/11/03 09:09:06;;;;;;;5.50;2.03;;;;;;;;;;5069257;28;20208;-55
2023/11/03 09:11:32;;;;;;;3.17;1.60;;;;;;;;;;5065583;28;20180;-56
2023/11/03 09:14:02;;;;;;;2.37;1.67;;;;;;;;;;5065728;28;20180;-56
2023/11/03 09:16:28;;;;;;;5.03;1.60;;;;;;;;;;5068210;28;20169;-57
2023/11/03 09:18:55;;;;;;;4.20;2.00;;;;;;;;;;5063523;28;20212;-56
2023/11/03 09:21:21;;;;;;;3.93;1.50;;;;;;;;;;5064936;28;20165;-60
2023/11/03 09:23:47;;;;;;;2.60;1.50;;;;;;;;;;5065058;28;20169;-56
2023/11/03 09:26:13;;;;;;;3.10;1.80;;;;;;;;;;5065020;28;20184;-61
2023/11/03 09:28:40;;;;;;;3.35;1.60;;;;;;;;;;5065759;28;20181;-56
2023/11/03 09:31:06;;;;;;;2.93;1.90;;;;;;;;;;5062748;28;20398;-56
2023/11/03 09:33:32;;;;;;;4.80;1.67;;;;;;;;;;5059612;28;20248;-56
2023/11/03 09:35:58;;;;;;;2.83;1.73;;;;;;;;;;5066093;28;20180;-56
2023/11/03 09:38:25;;;;;;;2.07;1.60;;;;;;;;;;5061453;28;20668;-56
2023/11/03 09:40:51;;;;;;;3.30;1.70;;;;;;;;;;5057636;28;20177;-56
2023/11/03 09:43:21;;;;;;;4.67;1.90;;;;;;;;;;5068280;28;20165;-56
2023/11/03 09:45:47;;;;;;;4.47;1.90;;;;;;;;;;5070800;28;20761;-56
2023/11/03 09:48:13;;;;;;;5.50;2.00;;;;;;;;;;5070675;28;20302;-57
2023/11/03 09:50:42;;;;;;;3.83;2.13;;;;;;;;;;5067944;28;20703;-56
2023/11/03 09:53:15;;;;;;;2.27;1.60;;;;;;;;;;5067851;28;20179;-56
2023/11/03 09:55:41;;;;;;;4.13;1.80;;;;;;;;;;5071738;28;20540;-56
2023/11/03 09:58:07;;;;;;;4.23;2.43;;;;;;;;;;5071409;28;20556;-57
2023/11/03 10:00:34;;;;;;;5.57;1.60;;;;;;;;;;5071581;28;20660;-57
2023/11/03 10:03:00;;;;;;;5.07;2.13;;;;;;;;;;5068746;28;20194;-56
2023/11/03 10:05:29;;;;;;;4.67;2.00;;;;;;;;;;5064224;28;20206;-56
2023/11/03 10:08:01;;;;;;;3.97;1.93;;;;;;;;;;5054473;28;20168;-56
2023/11/03 10:10:28;;;;;;;6.97;2.77;;;;;;;;;;5069438;28;20559;-57
2023/11/03 10:12:57;;;;;;;4.43;1.83;;;;;;;;;;5071089;28;20181;-56
2023/11/03 10:15:26;;;;;;;5.03;1.80;;;;;;;;;;5068877;28;20184;-56
2023/11/03 10:17:56;;;;;;;3.07;1.70;;;;;;;;;;5064316;28;20969;-56
2023/11/03 10:20:24;;;;;;;5.30;2.27;;;;;;;;;;5070128;28;20177;-56
2023/11/03 10:22:51;;;;;;;5.07;2.37;;;;;;;;;;5065624;28;20187;-56
2023/11/03 10:25:18;;;;;;;2.03;1.57;;;;;;;;;;5068785;28;20627;-56
2023/11/03 10:27:51;;;;;;;4.53;1.70;;;;;;;;;;5070974;28;20196;-57
2023/11/03 10:30:17;;;;;;;2.47;2.10;;;;;;;;;;5070138;28;20168;-57
2023/11/03 10:32:44;;;;;;;10.97;2.17;;;;;;;;;;5068300;28;20228;-56
2023/11/03 10:35:11;;;;;;;7.70;2.17;;;;;;;;;;5069959;28;20157;-57
2023/11/03 10:37:38;;;;;;;4.73;2.10;;;;;;;;;;5069032;28;20307;-56
2023/11/03 10:40:13;;;;;;;5.43;2.03;;;;;;;;;;5070303;28;20168;-56
2023/11/03 10:42:40;;;;;;;7.50;2.43;;;;;;;;;;5071528;28;20438;-56
2023/11/03 10:45:06;;;;;;;5.53;2.13;;;;;;;;;;5068653;28;20172;-56
2023/11/03 10:47:47;;;;;;;7.40;2.63;;;;;;;;;;5070112;28;20206;-56
2023/11/03 10:50:16;;;;;;;4.73;1.90;;;;;;;;;;5070457;28;20720;-57
2023/11/03 10:52:49;;;;;;;7.27;1.90;;;;;;;;;;5069200;28;20184;-57
2023/11/03 10:55:17;;;;;;;4.00;1.93;;;;;;;;;;5069840;28;20160;-57
2023/11/03 10:57:43;;;;;;;5.97;2.27;;;;;;;;;;5069969;28;20652;-56
2023/11/03 11:00:10;;;;;;;10.70;2.23;;;;;;;;;;5070152;28;20180;-57
2023/11/03 11:03:06;;;;;;;4.80;2.00;;;;;;;;;;5069892;28;20194;-56
2023/11/03 11:05:33;;;;;;;7.37;2.60;;;;;;;;;;5044849;28;20208;-56
2023/11/03 11:08:01;;;;;;;4.20;1.80;;;;;;;;;;5065255;28;20311;-56
2023/11/03 11:10:37;;;;;;;6.20;2.30;;;;;;;;;;5067874;28;20671;-56
2023/11/03 11:13:09;;;;;;;4.53;2.07;;;;;;;;;;5070765;28;20180;-56
2023/11/03 11:15:37;;;;;;;5.30;2.17;;;;;;;;;;5068055;28;20530;-57
2023/11/03 11:18:14;;;;;;;5.70;2.30;;;;;;;;;;5065142;28;20246;-57
2023/11/03 11:20:41;;;;;;;6.70;2.10;;;;;;;;;;5069699;28;20164;-57
2023/11/03 11:23:14;;;;;;;10.30;2.63;;;;;;;;;;5069083;28;20172;-58
2023/11/03 11:25:41;;;;;;;9.87;3.00;;;;;;;;;;5065116;28;20233;-57
2023/11/03 11:28:28;;;;;;;5.03;1.90;;;;;;;;;;5069742;28;20176;-57
2023/11/03 11:30:54;;;;;;;6.47;2.47;;;;;;;;;;5068899;28;20263;-56
2023/11/03 11:33:26;;;;;;;8.30;2.33;;;;;;;;;;5067652;28;20227;-57
2023/11/03 11:35:54;;;;;;;5.47;2.33;;;;;;;;;;5066169;28;20286;-56
2023/11/03 11:38:20;;;;;;;7.63;2.30;;;;;;;;;;5064112;28;20267;-56
2023/11/03 11:40:46;;;;;;;9.40;2.60;;;;;;;;;;5066633;28;20346;-55
2023/11/03 11:43:12;;;;;;;7.87;2.67;;;;;;;;;;5064813;28;20176;-55
2023/11/03 11:45:42;;;;;;;7.13;2.40;;;;;;;;;;5067768;28;20610;-54
2023/11/03 11:48:12;;;;;;;4.83;2.10;;;;;;;;;;5065711;28;20212;-54
2023/11/03 11:50:46;;;;;;;6.40;2.80;;;;;;;;;;5066256;28;20636;-54
2023/11/03 11:53:14;;;;;;;4.43;2.40;;;;;;;;;;5073040;28;20173;-55
2023/11/03 11:55:40;;;;;;;9.67;2.93;;;;;;;;;;5065880;28;20176;-55
2023/11/03 11:58:08;;;;;;;8.67;5.20;;;;;;;;;;5065645;28;20219;-54
2023/11/03 12:00:41;;;;;;;10.33;4.13;;;;;;;;;;5063538;28;20635;-55
2023/11/03 12:03:09;;;;;;;10.93;4.27;;;;;;;;;;5065160;28;20168;-55
2023/11/03 12:05:38;;;;;;;8.50;5.23;;;;;;;;;;5064633;28;20195;-55
2023/11/03 12:08:05;;;;;;;7.37;3.30;;;;;;;;;;5063698;28;20652;-55
2023/11/03 12:10:33;;;;;;;7.17;2.93;;;;;;;;;;5067918;28;20271;-56
2023/11/03 12:12:59;;;;;;;12.53;3.67;;;;;;;;;;5065777;28;20180;-55
2023/11/03 12:15:28;;;;;;;8.17;2.83;;;;;;;;;;5066011;28;20489;-54
2023/11/03 12:17:55;;;;;;;11.93;3.30;;;;;;;;;;5067331;28;20196;-53
2023/11/03 12:20:21;;;;;;;6.83;2.80;;;;;;;;;;5067920;28;20710;-54
2023/11/03 12:22:47;;;;;;;8.13;2.50;;;;;;;;;;5060397;28;20199;-54
2023/11/03 12:25:14;;;;;;;3.53;1.83;;;;;;;;;;5067116;28;20685;-54
2023/11/03 12:27:40;;;;;;;6.50;2.10;;;;;;;;;;5066719;28;20184;-54
2023/11/03 12:30:06;;;;;;;3.73;2.07;;;;;;;;;;5060869;28;20168;-53
2023/11/03 12:32:33;;;;;;;7.23;2.30;;;;;;;;;;5059882;28;20695;-56
2023/11/03 12:34:59;;;;;;;7.30;2.57;;;;;;;;;;5063507;28;20578;-54
2023/11/03 12:37:26;;;;;;;6.17;2.83;;;;;;;;;;5064812;28;20226;-54
2023/11/03 12:39:56;;;;;;;3.97;2.00;;;;;;;;;;5063027;28;20204;-54
2023/11/03 12:42:23;;;;;;;5.03;2.03;;;;;;;;;;5067590;28;20180;-54
2023/11/03 12:45:01;;;;;;;6.37;2.20;;;;;;;;;;5062492;28;20189;-54
2023/11/03 12:47:41;;;;;;;4.93;1.97;;;;;;;;;;5060524;28;20199;-55
2023/11/03 12:50:17;;;;;;;8.57;2.43;;;;;;;;;;5059841;28;20172;-54
2023/11/03 12:52:45;;;;;;;5.63;2.20;;;;;;;;;;5066480;28;20172;-54
2023/11/03 12:55:11;;;;;;;5.23;2.10;;;;;;;;;;5066029;28;20241;-54
2023/11/03 12:57:43;;;;;;;5.50;3.17;;;;;;;;;;5061423;28;20265;-54
2023/11/03 13:00:15;;;;;;;7.03;2.00;;;;;;;;;;5056072;28;20173;-54
2023/11/03 13:02:42;;;;;;;6.83;2.10;;;;;;;;;;5062339;28;20177;-54
2023/11/03 13:05:10;;;;;;;7.80;2.20;;;;;;;;;;5064041;28;20683;-54
2023/11/03 13:07:39;;;;;;;7.93;2.13;;;;;;;;;;5068989;28;20604;-54
2023/11/03 13:10:08;;;;;;;6.97;2.50;;;;;;;;;;5066409;28;20198;-54
2023/11/03 13:12:34;;;;;;;6.77;2.00;;;;;;;;;;5065248;28;20621;-54
2023/11/03 13:15:01;;;;;;;4.80;1.90;;;;;;;;;;5059479;28;20189;-54
2023/11/03 13:17:27;;;;;;;2.97;1.63;;;;;;;;;;5066420;28;20791;-54
2023/11/03 13:19:54;;;;;;;8.67;2.67;;;;;;;;;;5070885;28;20225;-54
2023/11/03 13:22:20;;;;;;;9.00;4.60;;;;;;;;;;5068219;28;20180;-54
2023/11/03 13:24:46;;;;;;;5.30;1.83;;;;;;;;;;5067934;28;20577;-55
2023/11/03 13:27:12;;;;;;;6.70;2.33;;;;;;;;;;5069506;28;20172;-55
2023/11/03 13:29:39;;;;;;;4.50;1.97;;;;;;;;;;5063686;28;20181;-55
2023/11/03 13:32:06;;;;;;;6.10;2.50;;;;;;;;;;5060493;28;20233;-55
2023/11/03 13:34:33;;;;;;;5.93;2.70;;;;;;;;;;5065289;28;20506;-55
2023/11/03 13:36:59;;;;;;;5.53;3.17;;;;;;;;;;5068449;28;20268;-55
2023/11/03 13:39:26;;;;;;;5.37;2.37;;;;;;;;;;5065473;28;20253;-55
2023/11/03 13:41:52;;;;;;;6.90;2.70;;;;;;;;;;5070751;28;20172;-54
2023/11/03 13:44:19;;;;;;;6.33;2.23;;;;;;;;;;5057549;28;20186;-55
2023/11/03 13:46:46;;;;;;;11.90;2.63;;;;;;;;;;5052110;28;20612;-54
2023/11/03 13:49:14;;;;;;;8.63;2.50;;;;;;;;;;5054157;28;20189;-55
2023/11/03 13:51:40;;;;;;;4.47;2.00;;;;;;;;;;5064655;28;20637;-55
2023/11/03 13:54:07;;;;;;;5.13;2.13;;;;;;;;;;5060469;28;20212;-55
2023/11/03 13:56:33;;;;;;;6.40;2.10;;;;;;;;;;5067050;28;20666;-55
2023/11/03 13:59:00;;;;;;;4.70;2.40;;;;;;;;;;5065273;28;20755;-54
2023/11/03 14:01:27;;;;;;;5.53;2.30;;;;;;;;;;5066175;28;20272;-55
2023/11/03 14:03:55;;;;;;;4.77;2.10;;;;;;;;;;5065363;28;20589;-54
2023/11/03 14:06:22;;;;;;;6.97;2.27;;;;;;;;;;5060720;28;20179;-55
2023/11/03 14:08:49;;;;;;;6.60;2.40;;;;;;;;;;5068412;28;20181;-55
2023/11/03 14:11:15;;;;;;;4.97;2.00;;;;;;;;;;5068204;28;20184;-54
2023/11/03 14:13:45;;;;;;;4.37;1.80;;;;;;;;;;5066735;28;20733;-54
2023/11/03 14:16:11;;;;;;;4.73;2.07;;;;;;;;;;5067651;28;20282;-55
2023/11/03 14:18:37;;;;;;;9.10;2.30;;;;;;;;;;5067081;28;20215;-55
2023/11/03 14:21:04;;;;;;;9.83;2.57;;;;;;;;;;5067119;28;20531;-54
2023/11/03 14:23:30;;;;;;;4.30;2.20;;;;;;;;;;5065779;28;20186;-54
2023/11/03 14:25:57;;;;;;;3.53;1.80;;;;;;;;;;5066266;28;20187;-54
2023/11/03 14:28:24;;;;;;;7.30;2.30;;;;;;;;;;5064067;28;20539;-53
2023/11/03 14:30:51;;;;;;;4.47;2.07;;;;;;;;;;5065848;28;20206;-54
2023/11/03 14:33:21;;;;;;;3.67;2.00;;;;;;;;;;5059017;28;21424;-55
2023/11/03 14:35:47;;;;;;;3.37;2.20;;;;;;;;;;5067434;28;20177;-54
2023/11/03 14:38:20;;;;;;;3.83;2.30;;;;;;;;;;5062503;28;20621;-54
2023/11/03 14:40:53;;;;;;;5.20;2.33;;;;;;;;;;5062758;28;20172;-54
2023/11/03 14:43:19;;;;;;;5.27;2.47;;;;;;;;;;5067162;28;20187;-53
2023/11/03 14:45:45;;;;;;;7.27;2.50;;;;;;;;;;5062635;28;20528;-54